Weather at Southwest Oregon Regional Airport

Public forecast

Using degrees Fahrenheit for public forecast. Weather courtesy of forecast.io.

Current aviation weather report (METAR) for Southwest Oregon Regional Airport

Retrieved 2021/09/28 18:56 UTC (2 hours ago):

KOTH 281856Z 23010G14KT 10SM SCT034 BKN041 OVC060 16/13 A3021 RMK AO2 RAE13 SLP229 P0000 T01560128

Aviation forecast (TAF) for Southwest Oregon Regional Airport

Retrieved 2021/09/28 18:42 UTC (2 hours ago):

TAF KOTH 281739Z 2818/2918 17007KT P6SM -SHRA SCT020 BKN040 TEMPO 2818/2819 BKN015 FM281900 26008KT P6SM BKN050 FM290200 VRB04KT P6SM SCT060 BKN120 FM290700 15005KT P6SM BKN050 BKN120